Weather at Legazpi City International Airport [CLOSED]

Public forecast

Using degrees Celsius for public forecast. Weather courtesy of forecast.io.

Closest aviation weather report (METAR) to Legazpi City International Airport

Closest report is Ninoy Aquino International Airport, 177.9 nm (329.4 km) WNW.

2024/06/17 11:00 (retrieved 33 minutes ago)

RPLL 171100Z 24005KT 9000 FEW022CB SCT025 30/26 Q1009 NOSIG RMK A2980 CB/LTG W

Closest aviation forecast (TAF) to Legazpi City International Airport

Closest forecast is Ninoy Aquino International Airport, 177.9 nm (329.4 km) WNW.

2024/06/17 06:00 (retrieved 6 hours ago)

TAF RPLL 170500Z 1706/1812 26007KT 9999 FEW025 TX35/1706Z TN28/1721Z TEMPO 1706/1712 VRB05KT -SHRA SCT025CB BKN090 TEMPO 1721/1803 -SHRA FEW022CB BKN090